Cochrane, Alabama
Current Conditions -  °F | °C
As of 11:53 AM on Thursday 18 Dec 2014 (Local Time) from KTCL Reporting Station
Overcast Overcast  
Wind Chill: 48°   Ceiling: 6000
Heat Index: 48°   Visibility: 10mi
Dew Point: 32°   Wind: 0mph
Humidity: 54%   Direction: NA
Pressure: 30.19"   Gusts: NA
Location:  33.1204°N, 88.1617°W
Report Text: KTCL 181753Z 00000KT 10SM OVC060 09/00 A3019 RMK AO2 SLP225 T00890000 10094 20022 58012
Loading
Personal Weather Stations






























Interactive Weather Map New forecast layout! Learn more

10-Day Weather Forecast

Advertisements
Track Severe Weather on mobile